createdAt,value
2019-05-06T00:00:33.958Z,75.24
2019-05-06T00:01:34.112Z,75.05
2019-05-06T00:02:33.587Z,75.62
2019-05-06T00:03:34.210Z,75.90
2019-05-06T00:04:33.992Z,75.81
2019-05-06T00:05:34.008Z,75.71
2019-05-06T00:06:34.390Z,76.85
2019-05-06T00:07:33.881Z,76.47
2019-05-06T00:08:34.224Z,76.53
2019-05-06T00:09:32.065Z,76.34
2019-05-06T00:10:33.994Z,76.25
2019-05-06T00:11:34.401Z,76.62
2019-05-06T00:12:33.522Z,76.43
2019-05-06T00:13:34.207Z,76.15
2019-05-06T00:14:33.886Z,76.43
2019-05-06T00:15:34.098Z,76.25
2019-05-06T00:16:34.412Z,76.43
2019-05-06T00:17:32.097Z,76.34
2019-05-06T00:18:34.229Z,76.81
2019-05-06T00:19:34.094Z,76.43
2019-05-06T00:20:32.109Z,76.90
2019-05-06T00:21:32.110Z,76.81
2019-05-06T00:22:34.270Z,77.37
2019-05-06T00:23:32.123Z,77.09
2019-05-06T00:24:34.672Z,77.94
2019-05-06T00:25:34.728Z,77.75
2019-05-06T00:26:33.993Z,78.23
2019-05-06T00:27:34.172Z,78.13
2019-05-06T00:28:34.014Z,77.94
2019-05-06T00:29:32.141Z,78.42
2019-05-06T00:30:34.442Z,78.60
2019-05-06T00:31:34.364Z,78.42
2019-05-06T00:32:32.155Z,78.04
2019-05-06T00:33:34.002Z,77.56
2019-05-06T00:34:33.971Z,77.75
2019-05-06T00:35:34.157Z,77.85
2019-05-06T00:36:34.314Z,78.23
2019-05-06T00:37:32.169Z,77.85
2019-05-06T00:38:34.005Z,78.23
2019-05-06T00:39:33.659Z,78.13
2019-05-06T00:40:34.027Z,77.85
2019-05-06T00:41:35.907Z,78.04
2019-05-06T00:42:34.434Z,78.23
2019-05-06T00:43:34.352Z,77.85
2019-05-06T00:44:32.196Z,78.23
2019-05-06T00:45:34.071Z,78.13
2019-05-06T00:46:34.257Z,78.04
2019-05-06T00:47:33.999Z,77.56
2019-05-06T00:48:34.112Z,77.00
2019-05-06T00:49:34.272Z,77.09
2019-05-06T00:50:32.215Z,76.62
2019-05-06T00:51:33.864Z,77.28
2019-05-06T00:52:33.959Z,77.47
2019-05-06T00:53:34.605Z,76.43
2019-05-06T00:54:34.097Z,76.34
2019-05-06T00:55:33.783Z,76.25
2019-05-06T00:56:34.026Z,76.34
2019-05-06T00:57:33.964Z,76.62
2019-05-06T00:58:34.592Z,76.53
2019-05-06T00:59:34.422Z,76.43
2019-05-06T01:00:33.677Z,76.62
2019-05-06T01:01:34.293Z,76.53
2019-05-06T01:02:34.123Z,76.43
2019-05-06T01:03:34.518Z,77.00
2019-05-06T01:04:33.887Z,76.72
2019-05-06T01:05:33.736Z,76.62
2019-05-06T01:06:34.457Z,77.00
2019-05-06T01:07:34.356Z,77.19
2019-05-06T01:08:34.656Z,77.94
2019-05-06T01:09:33.913Z,77.75
2019-05-06T01:10:34.234Z,77.56
2019-05-06T01:11:34.486Z,77.85
2019-05-06T01:12:34.558Z,77.66
2019-05-06T01:13:32.292Z,77.94
2019-05-06T01:14:32.298Z,77.94
2019-05-06T01:15:34.263Z,77.47
2019-05-06T01:16:34.391Z,77.94
2019-05-06T01:17:33.908Z,78.04
2019-05-06T01:18:34.049Z,78.23
2019-05-06T01:19:34.136Z,78.23
2019-05-06T01:20:33.956Z,78.13
2019-05-06T01:21:34.192Z,77.94
2019-05-06T01:22:34.195Z,77.85
2019-05-06T01:23:34.201Z,77.56
2019-05-06T01:24:34.350Z,77.66
2019-05-06T01:25:34.461Z,77.94
2019-05-06T01:26:33.731Z,77.28
2019-05-06T01:27:33.740Z,77.47
2019-05-06T01:28:34.104Z,76.90
2019-05-06T01:29:34.613Z,76.90
2019-05-06T01:30:33.722Z,77.00
2019-05-06T01:31:42.284Z,76.53
2019-05-06T01:32:34.437Z,76.62
2019-05-06T01:33:32.362Z,76.25
2019-05-06T01:34:33.884Z,76.43
2019-05-06T01:35:32.361Z,76.43
2019-05-06T01:36:34.286Z,76.34
2019-05-06T01:37:34.586Z,75.68
2019-05-06T01:38:33.956Z,75.87
2019-05-06T01:39:34.164Z,76.25
2019-05-06T01:40:34.495Z,75.78
2019-05-06T01:41:33.860Z,75.68
2019-05-06T01:42:34.273Z,75.68
2019-05-06T01:43:34.547Z,75.87
2019-05-06T01:44:33.925Z,75.87
2019-05-06T01:45:32.397Z,75.96
2019-05-06T01:46:33.954Z,75.87
2019-05-06T01:47:34.446Z,75.87
2019-05-06T01:48:33.654Z,76.06
2019-05-06T01:49:33.997Z,75.96
2019-05-06T01:50:34.338Z,75.87
2019-05-06T01:51:34.605Z,75.78
2019-05-06T01:52:34.371Z,75.78
2019-05-06T01:53:33.876Z,75.78
2019-05-06T01:54:34.320Z,75.87
2019-05-06T01:55:34.216Z,75.68
2019-05-06T01:56:33.649Z,75.68
2019-05-06T01:57:33.776Z,75.59
2019-05-06T01:58:33.558Z,75.87
2019-05-06T01:59:34.060Z,75.21
2019-05-06T02:00:34.372Z,75.49
2019-05-06T02:01:34.211Z,76.06
2019-05-06T02:02:34.222Z,75.30
2019-05-06T02:03:34.606Z,75.78
2019-05-06T02:04:33.747Z,75.40
2019-05-06T02:05:33.662Z,75.59
2019-05-06T02:06:34.315Z,76.15
2019-05-06T02:07:34.801Z,75.78
2019-05-06T02:08:33.695Z,75.87
2019-05-06T02:09:34.322Z,75.78
2019-05-06T02:10:34.498Z,75.96
2019-05-06T02:11:33.698Z,75.87
2019-05-06T02:12:34.217Z,75.49
2019-05-06T02:13:34.821Z,75.11
2019-05-06T02:14:34.152Z,75.11
2019-05-06T02:15:34.504Z,75.02
2019-05-06T02:16:34.299Z,74.74
2019-05-06T02:17:34.388Z,74.92
2019-05-06T02:18:33.935Z,74.55
2019-05-06T02:19:34.558Z,74.26
2019-05-06T02:20:34.003Z,74.07
2019-05-06T02:21:33.674Z,74.36
2019-05-06T02:22:34.477Z,73.88
2019-05-06T02:23:33.838Z,74.07
2019-05-06T02:24:33.784Z,74.26
2019-05-06T02:25:34.171Z,74.26
2019-05-06T02:26:34.292Z,74.07
2019-05-06T02:27:34.107Z,74.36
2019-05-06T02:28:34.369Z,74.26
2019-05-06T02:29:34.168Z,73.98
2019-05-06T02:30:36.151Z,73.98
2019-05-06T02:31:35.171Z,74.17
2019-05-06T02:32:35.708Z,74.17
2019-05-06T02:33:35.383Z,74.17
2019-05-06T02:34:36.029Z,73.79
2019-05-06T02:35:34.823Z,74.26
2019-05-06T02:36:34.398Z,73.98
2019-05-06T02:37:34.973Z,74.17
2019-05-06T02:38:39.097Z,74.07
2019-05-06T02:39:34.129Z,73.79
2019-05-06T02:40:33.326Z,74.07
2019-05-06T02:41:33.783Z,74.26
2019-05-06T02:42:33.620Z,74.26
2019-05-06T02:43:34.382Z,74.45
2019-05-06T02:44:33.594Z,74.26
2019-05-06T02:45:33.454Z,75.02
2019-05-06T02:46:33.801Z,74.92
2019-05-06T02:47:34.370Z,75.02
2019-05-06T02:48:33.535Z,74.92
2019-05-06T02:49:32.974Z,74.92
2019-05-06T02:50:33.917Z,75.02
2019-05-06T02:51:33.381Z,75.02
2019-05-06T02:52:33.044Z,75.49
2019-05-06T02:53:33.622Z,76.06
2019-05-06T02:54:34.463Z,76.53
2019-05-06T02:55:36.077Z,76.43
2019-05-06T02:56:33.357Z,76.34
2019-05-06T02:57:33.520Z,76.62
2019-05-06T02:58:33.160Z,75.96
2019-05-06T02:59:33.222Z,75.87
2019-05-06T03:00:33.083Z,75.87
2019-05-06T03:01:33.998Z,75.87
2019-05-06T03:02:39.927Z,76.34
2019-05-06T03:03:33.672Z,75.68
2019-05-06T03:04:33.344Z,75.40
2019-05-06T03:05:33.294Z,75.68
2019-05-06T03:06:33.734Z,75.87
2019-05-06T03:07:33.292Z,75.87
2019-05-06T03:08:32.999Z,76.43
2019-05-06T03:09:33.909Z,76.72
2019-05-06T03:10:33.067Z,76.43
2019-05-06T03:11:33.253Z,76.34
2019-05-06T03:12:33.562Z,76.25
2019-05-06T03:13:33.946Z,77.00
2019-05-06T03:14:34.614Z,76.72
2019-05-06T03:15:34.192Z,77.00
2019-05-06T03:16:33.489Z,76.72
2019-05-06T03:17:32.974Z,76.90
2019-05-06T03:18:32.952Z,76.81
2019-05-06T03:19:34.140Z,76.53
2019-05-06T03:20:35.858Z,75.96
2019-05-06T03:21:36.673Z,75.87
2019-05-06T03:22:34.561Z,75.87
2019-05-06T03:23:34.972Z,75.87
2019-05-06T03:24:33.214Z,75.68
2019-05-06T03:25:33.247Z,75.68
2019-05-06T03:26:33.207Z,76.53
2019-05-06T03:27:33.065Z,76.72
2019-05-06T03:28:33.436Z,77.09
2019-05-06T03:29:33.542Z,77.94
2019-05-06T03:30:36.156Z,77.85
2019-05-06T03:31:36.341Z,77.75
2019-05-06T03:32:38.212Z,77.94
2019-05-06T03:33:50.652Z,77.66
2019-05-06T03:34:52.757Z,77.53
2019-05-06T03:35:48.408Z,77.66
2019-05-06T03:36:39.811Z,78.00
2019-05-06T03:37:33.447Z,77.72
2019-05-06T03:38:33.688Z,78.32
2019-05-06T03:39:33.750Z,77.62
2019-05-06T03:40:36.143Z,78.19
2019-05-06T03:41:33.849Z,78.56
2019-05-06T03:42:33.459Z,78.47
2019-05-06T03:43:33.760Z,78.38
2019-05-06T03:44:33.136Z,77.91
2019-05-06T03:45:33.578Z,78.19
2019-05-06T03:46:33.602Z,78.66
2019-05-06T03:47:34.543Z,78.56
2019-05-06T03:48:33.423Z,78.19
2019-05-06T03:49:33.797Z,77.91
2019-05-06T03:50:33.597Z,78.85
2019-05-06T03:51:34.267Z,78.38
2019-05-06T03:52:34.141Z,78.66
2019-05-06T03:53:33.558Z,78.28
2019-05-06T03:54:34.344Z,78.66
2019-05-06T03:55:34.204Z,78.66
2019-05-06T03:56:33.905Z,78.38
2019-05-06T03:57:36.184Z,78.00
2019-05-06T03:58:34.589Z,78.19
2019-05-06T03:59:33.526Z,78.00
2019-05-06T04:00:33.451Z,78.38
2019-05-06T04:01:33.563Z,78.38
2019-05-06T04:02:33.674Z,78.00
2019-05-06T04:03:44.067Z,78.66
2019-05-06T04:04:33.339Z,78.85
2019-05-06T04:05:33.523Z,78.66
2019-05-06T04:06:33.470Z,78.66
2019-05-06T04:07:33.982Z,78.09
2019-05-06T04:08:34.167Z,78.56
2019-05-06T04:09:33.560Z,78.56
2019-05-06T04:10:36.495Z,77.62
2019-05-06T04:11:35.771Z,77.62
2019-05-06T04:12:33.274Z,77.62
2019-05-06T04:13:33.351Z,77.91
2019-05-06T04:14:33.657Z,77.34
2019-05-06T04:15:34.160Z,78.00
2019-05-06T04:16:33.827Z,77.44
2019-05-06T04:17:33.065Z,77.15
2019-05-06T04:18:33.486Z,76.02
2019-05-06T04:19:33.480Z,75.45
2019-05-06T04:20:34.329Z,75.45
2019-05-06T04:21:33.132Z,74.98
2019-05-06T04:22:33.360Z,75.26
2019-05-06T04:23:33.352Z,76.11
2019-05-06T04:24:33.723Z,75.64
2019-05-06T04:25:33.972Z,76.02
2019-05-06T04:26:33.115Z,76.40
2019-05-06T04:27:33.537Z,76.77
2019-05-06T04:28:34.163Z,77.15
2019-05-06T04:29:35.532Z,77.72
2019-05-06T04:30:33.487Z,77.53
2019-05-06T04:31:33.637Z,77.91
2019-05-06T04:32:34.048Z,77.81
2019-05-06T04:33:33.327Z,77.72
2019-05-06T04:34:33.364Z,78.00
2019-05-06T04:35:33.790Z,76.21
2019-05-06T04:36:33.663Z,74.22
2019-05-06T04:37:33.857Z,73.57
2019-05-06T04:38:33.731Z,73.57
2019-05-06T04:39:33.252Z,73.38
2019-05-06T04:40:33.223Z,73.94
2019-05-06T04:41:34.057Z,73.85
2019-05-06T04:42:34.394Z,73.85
2019-05-06T04:43:33.771Z,74.04
2019-05-06T04:44:33.234Z,73.94
2019-05-06T04:45:33.830Z,73.19
2019-05-06T04:46:34.903Z,72.15
2019-05-06T04:47:32.947Z,72.25
2019-05-06T04:48:33.286Z,72.34
2019-05-06T04:49:33.318Z,72.81
2019-05-06T04:50:33.306Z,73.19
2019-05-06T04:51:36.748Z,73.19
2019-05-06T04:52:34.186Z,72.91
2019-05-06T04:53:33.901Z,72.72
2019-05-06T04:54:33.644Z,73.00
2019-05-06T04:55:33.732Z,73.57
2019-05-06T04:56:33.364Z,73.19
2019-05-06T04:57:33.818Z,73.10
2019-05-06T04:58:33.705Z,73.28
2019-05-06T04:59:32.970Z,73.75
2019-05-06T05:00:33.252Z,73.66
2019-05-06T05:01:34.073Z,73.00
2019-05-06T05:02:33.706Z,72.81
2019-05-06T05:03:33.573Z,72.91
2019-05-06T05:04:36.600Z,72.25
2019-05-06T05:05:33.300Z,72.06
2019-05-06T05:06:33.087Z,71.77
2019-05-06T05:07:33.539Z,71.40
2019-05-06T05:08:33.209Z,71.40
2019-05-06T05:09:32.995Z,71.21
2019-05-06T05:10:32.998Z,71.77
2019-05-06T05:11:33.354Z,71.49
2019-05-06T05:12:33.721Z,71.87
2019-05-06T05:13:33.087Z,71.68
2019-05-06T05:14:33.002Z,71.87
2019-05-06T05:15:33.006Z,72.06
2019-05-06T05:16:33.281Z,72.53
2019-05-06T05:17:33.231Z,72.34
2019-05-06T05:18:33.027Z,72.81
2019-05-06T05:19:33.013Z,72.72
2019-05-06T05:20:37.685Z,73.19
2019-05-06T05:21:33.025Z,73.75
2019-05-06T05:22:33.019Z,73.75
2019-05-06T05:23:33.027Z,74.04
2019-05-06T05:24:33.029Z,74.32
2019-05-06T05:25:33.028Z,74.79
2019-05-06T05:26:33.032Z,74.64
2019-05-06T05:27:33.064Z,75.11
2019-05-06T05:28:33.035Z,74.79
2019-05-06T05:29:33.040Z,75.40
2019-05-06T05:30:33.045Z,75.07
2019-05-06T05:31:33.377Z,75.02
2019-05-06T05:32:33.043Z,75.11
2019-05-06T05:33:33.050Z,74.83
2019-05-06T05:34:40.253Z,75.02
2019-05-06T05:35:33.057Z,74.64
2019-05-06T05:36:33.053Z,74.92
2019-05-06T05:37:33.060Z,74.74
2019-05-06T05:38:33.066Z,74.36
2019-05-06T05:39:33.367Z,74.55
2019-05-06T05:40:33.066Z,74.45
2019-05-06T05:41:33.391Z,74.45
2019-05-06T05:42:33.070Z,74.07
2019-05-06T05:43:33.078Z,74.07
2019-05-06T05:44:33.075Z,74.17
2019-05-06T05:45:33.086Z,74.64
2019-05-06T05:46:33.169Z,74.45
2019-05-06T05:47:33.245Z,74.36
2019-05-06T05:48:33.086Z,74.07
2019-05-06T05:49:33.094Z,74.17
2019-05-06T05:50:33.101Z,73.88
2019-05-06T05:51:33.096Z,73.79
2019-05-06T05:52:33.145Z,74.07
2019-05-06T05:53:33.101Z,74.17
2019-05-06T05:54:33.333Z,74.07
2019-05-06T05:55:33.145Z,74.07
2019-05-06T05:56:33.169Z,74.17
2019-05-06T05:57:33.111Z,73.98
2019-05-06T05:58:33.151Z,73.69
2019-05-06T05:59:33.174Z,74.07
2019-05-06T06:00:33.120Z,74.17
2019-05-06T06:01:33.123Z,74.26
2019-05-06T06:02:33.377Z,74.07
2019-05-06T06:03:33.129Z,74.17
2019-05-06T06:04:33.132Z,73.79
2019-05-06T06:05:33.225Z,73.13
2019-05-06T06:06:33.399Z,72.66
2019-05-06T06:07:33.144Z,72.28
2019-05-06T06:08:33.143Z,73.79
2019-05-06T06:09:33.146Z,73.69
2019-05-06T06:10:33.325Z,73.22
2019-05-06T06:11:33.153Z,72.75
2019-05-06T06:12:33.157Z,71.34
2019-05-06T06:13:33.163Z,70.58
2019-05-06T06:14:33.359Z,71.15
2019-05-06T06:15:33.167Z,71.25
2019-05-06T06:16:33.167Z,71.72
2019-05-06T06:17:33.171Z,71.15
2019-05-06T06:18:33.425Z,71.81
2019-05-06T06:19:33.179Z,71.15
2019-05-06T06:20:33.179Z,71.15
2019-05-06T06:21:33.193Z,71.84
2019-05-06T06:22:33.198Z,71.37
2019-05-06T06:23:33.189Z,70.96
2019-05-06T06:24:33.195Z,71.47
2019-05-06T06:25:33.561Z,71.94
2019-05-06T06:26:33.200Z,72.41
2019-05-06T06:27:33.270Z,73.74
2019-05-06T06:28:33.407Z,71.75
2019-05-06T06:29:33.212Z,70.62
2019-05-06T06:30:33.227Z,70.72
2019-05-06T06:31:33.326Z,70.24
2019-05-06T06:32:33.223Z,70.72
2019-05-06T06:33:33.219Z,71.37
2019-05-06T06:34:33.222Z,70.34
2019-05-06T06:35:33.230Z,70.53
2019-05-06T06:36:33.231Z,70.34
2019-05-06T06:37:33.350Z,70.20
2019-05-06T06:38:33.233Z,70.30
2019-05-06T06:39:33.241Z,71.09
2019-05-06T06:40:33.243Z,70.49
2019-05-06T06:41:33.244Z,70.62
2019-05-06T06:42:33.621Z,72.03
2019-05-06T06:43:33.253Z,71.84
2019-05-06T06:44:33.264Z,71.28
2019-05-06T06:45:33.254Z,71.19
2019-05-06T06:46:33.257Z,71.19
2019-05-06T06:47:33.265Z,70.34
2019-05-06T06:48:33.268Z,70.53
2019-05-06T06:49:33.274Z,70.53
2019-05-06T06:50:33.278Z,69.58
2019-05-06T06:51:33.276Z,69.96
2019-05-06T06:52:33.278Z,70.05
2019-05-06T06:53:33.283Z,70.34
2019-05-06T06:54:33.284Z,70.62
2019-05-06T06:55:33.284Z,70.62
2019-05-06T06:56:33.289Z,70.43
2019-05-06T06:57:34.428Z,70.24
2019-05-06T06:58:33.309Z,71.94
2019-05-06T06:59:33.298Z,72.88
2019-05-06T07:00:33.692Z,70.72
2019-05-06T07:01:33.308Z,70.53
2019-05-06T07:02:33.311Z,69.58
2019-05-06T07:03:33.316Z,69.20
2019-05-06T07:04:33.318Z,70.24
2019-05-06T07:05:33.335Z,70.15
2019-05-06T07:06:33.323Z,70.53
2019-05-06T07:07:41.463Z,71.28
2019-05-06T07:08:37.352Z,71.19
2019-05-06T07:09:33.327Z,70.81
2019-05-06T07:10:33.328Z,69.01
2019-05-06T07:11:33.336Z,69.96
2019-05-06T07:12:33.334Z,69.77
2019-05-06T07:13:33.351Z,69.86
2019-05-06T07:14:36.145Z,71.37
2019-05-06T07:15:33.813Z,71.22
2019-05-06T07:16:33.349Z,68.20
2019-05-06T07:17:33.350Z,67.22
2019-05-06T07:18:33.423Z,67.03
2019-05-06T07:19:33.358Z,69.24
2019-05-06T07:20:33.360Z,67.88
2019-05-06T07:21:34.255Z,67.79
2019-05-06T07:22:33.366Z,67.41
2019-05-06T07:23:33.368Z,69.39
2019-05-06T07:24:33.373Z,68.82
2019-05-06T07:25:33.690Z,69.39
2019-05-06T07:26:33.376Z,68.73
2019-05-06T07:27:33.378Z,68.16
2019-05-06T07:28:33.387Z,67.79
2019-05-06T07:29:33.391Z,66.84
2019-05-06T07:30:33.388Z,67.22
2019-05-06T07:31:33.391Z,67.79
2019-05-06T07:32:33.407Z,68.92
2019-05-06T07:33:33.779Z,68.54
2019-05-06T07:34:33.401Z,69.11
2019-05-06T07:35:40.443Z,70.75
2019-05-06T07:36:33.413Z,71.31
2019-05-06T07:37:33.416Z,70.65
2019-05-06T07:38:33.415Z,69.81
2019-05-06T07:39:33.529Z,68.48
2019-05-06T07:40:33.424Z,66.78
2019-05-06T07:41:36.208Z,66.84
2019-05-06T07:42:33.431Z,69.90
2019-05-06T07:43:33.985Z,69.71
2019-05-06T07:44:33.507Z,69.33
2019-05-06T07:45:33.440Z,68.86
2019-05-06T07:46:33.439Z,69.14
2019-05-06T07:47:33.455Z,68.48
2019-05-06T07:48:33.447Z,68.29
2019-05-06T07:49:33.450Z,69.43
2019-05-06T07:50:33.459Z,69.14
2019-05-06T07:51:33.461Z,68.71
2019-05-06T07:52:33.465Z,67.10
2019-05-06T07:53:33.464Z,64.73
2019-05-06T07:54:33.467Z,63.79
2019-05-06T07:55:33.471Z,62.34
2019-05-06T07:56:33.476Z,62.06
2019-05-06T07:57:33.481Z,63.95
2019-05-06T07:58:33.484Z,66.41
2019-05-06T07:59:33.574Z,68.57
2019-05-06T08:00:33.488Z,67.29
2019-05-06T08:01:33.495Z,66.82
2019-05-06T08:02:33.495Z,64.17
2019-05-06T08:03:33.499Z,62.66
2019-05-06T08:04:33.508Z,62.66
2019-05-06T08:05:33.511Z,63.04
2019-05-06T08:06:33.514Z,63.60
2019-05-06T08:07:33.516Z,63.60
2019-05-06T08:08:33.927Z,63.60
2019-05-06T08:09:33.523Z,64.39
2019-05-06T08:10:33.548Z,64.29
2019-05-06T08:11:33.531Z,63.82
2019-05-06T08:12:33.535Z,61.65
2019-05-06T08:13:33.541Z,60.89
2019-05-06T08:14:33.542Z,59.57
2019-05-06T08:15:33.546Z,60.67
2019-05-06T08:16:33.549Z,61.61
2019-05-06T08:17:33.557Z,60.49
2019-05-06T08:18:33.561Z,61.05
2019-05-06T08:19:33.856Z,61.05
2019-05-06T08:20:33.565Z,62.56
2019-05-06T08:21:33.570Z,61.83
2019-05-06T08:22:33.580Z,63.64
2019-05-06T08:23:33.580Z,62.02
2019-05-06T08:24:33.582Z,62.31
2019-05-06T08:25:33.590Z,62.12
2019-05-06T08:26:33.592Z,62.40
2019-05-06T08:27:33.596Z,61.36
2019-05-06T08:28:41.031Z,61.65
2019-05-06T08:29:33.606Z,60.42
2019-05-06T08:30:33.643Z,62.21
2019-05-06T08:31:33.612Z,61.65
2019-05-06T08:32:33.622Z,61.65
2019-05-06T08:33:33.637Z,61.83
2019-05-06T08:34:34.284Z,62.78
2019-05-06T08:35:33.632Z,61.05
2019-05-06T08:36:33.636Z,62.47
2019-05-06T08:37:33.661Z,65.43
2019-05-06T08:38:33.642Z,63.64
2019-05-06T08:39:33.646Z,64.86
2019-05-06T08:40:33.653Z,63.45
2019-05-06T08:41:33.654Z,63.82
2019-05-06T08:42:33.661Z,62.88
2019-05-06T08:43:33.667Z,61.93
2019-05-06T08:44:33.667Z,60.61
2019-05-06T08:45:33.672Z,60.14
2019-05-06T08:46:33.686Z,61.18
2019-05-06T08:47:33.680Z,63.26
2019-05-06T08:48:33.684Z,61.55
2019-05-06T08:49:33.693Z,59.95
2019-05-06T08:50:33.699Z,60.61
2019-05-06T08:51:33.701Z,62.40
2019-05-06T08:52:33.701Z,61.36
2019-05-06T08:53:33.711Z,63.45
2019-05-06T08:54:33.712Z,64.58
2019-05-06T08:55:33.720Z,65.94
2019-05-06T08:56:33.723Z,64.80
2019-05-06T08:57:33.726Z,63.67
2019-05-06T08:58:33.738Z,63.20
2019-05-06T08:59:33.741Z,61.11
2019-05-06T09:00:33.744Z,59.28
2019-05-06T09:01:33.746Z,59.66
2019-05-06T09:02:33.752Z,61.55
2019-05-06T09:03:33.759Z,61.74
2019-05-06T09:04:33.762Z,63.82
2019-05-06T09:05:33.766Z,62.59
2019-05-06T09:06:34.477Z,62.78
2019-05-06T09:07:33.780Z,63.16
2019-05-06T09:08:33.781Z,63.64
2019-05-06T09:09:33.787Z,68.77
2019-05-06T09:10:33.794Z,67.17
2019-05-06T09:11:33.800Z,66.79
2019-05-06T09:12:33.804Z,65.28
2019-05-06T09:13:33.809Z,62.82
2019-05-06T09:14:33.817Z,63.95
2019-05-06T09:15:33.824Z,64.42
2019-05-06T09:16:33.826Z,61.68
2019-05-06T09:17:33.827Z,60.83
2019-05-06T09:18:33.832Z,60.74
2019-05-06T09:19:33.837Z,61.77
2019-05-06T09:20:33.846Z,63.10
2019-05-06T09:21:33.849Z,61.68
2019-05-06T09:22:33.852Z,61.30
2019-05-06T09:23:33.858Z,64.52
2019-05-06T09:24:33.866Z,63.57
2019-05-06T09:25:33.874Z,65.09
2019-05-06T09:26:33.874Z,65.37
2019-05-06T09:27:33.883Z,65.21
2019-05-06T09:28:34.083Z,63.60
2019-05-06T09:29:33.893Z,63.51
2019-05-06T09:30:33.899Z,64.26
2019-05-06T09:31:33.908Z,64.64
2019-05-06T09:32:36.084Z,61.61
2019-05-06T09:33:33.913Z,61.05
2019-05-06T09:34:33.920Z,62.66
2019-05-06T09:35:33.929Z,63.04
2019-05-06T09:36:43.845Z,61.90
2019-05-06T09:37:33.940Z,58.97
2019-05-06T09:38:33.946Z,60.48
2019-05-06T09:39:33.952Z,62.18
2019-05-06T09:40:33.966Z,63.32
2019-05-06T09:41:33.974Z,60.77
2019-05-06T09:42:33.971Z,63.23
2019-05-06T09:43:33.973Z,63.70
2019-05-06T09:44:33.978Z,60.26
2019-05-06T09:45:33.987Z,61.87
2019-05-06T09:46:33.996Z,61.40
2019-05-06T09:47:34.002Z,63.85
2019-05-06T09:48:34.010Z,63.67
2019-05-06T09:49:34.008Z,62.44
2019-05-06T09:50:34.019Z,63.20
2019-05-06T09:51:34.022Z,61.83
2019-05-06T09:52:34.027Z,63.54
2019-05-06T09:53:34.034Z,63.20
2019-05-06T09:54:34.044Z,63.85
2019-05-06T09:55:34.046Z,63.67
2019-05-06T09:56:34.050Z,63.04
2019-05-06T09:57:34.059Z,62.66
2019-05-06T09:58:34.067Z,61.33
2019-05-06T09:59:34.074Z,59.81
2019-05-06T10:00:34.077Z,60.58
2019-05-06T10:01:34.080Z,60.58
2019-05-06T10:02:34.087Z,58.49
2019-05-06T10:03:34.095Z,59.03
2019-05-06T10:04:34.100Z,58.37
2019-05-06T10:05:34.107Z,61.43
2019-05-06T10:06:34.114Z,62.37
2019-05-06T10:07:34.121Z,60.10
2019-05-06T10:08:34.121Z,61.08
2019-05-06T10:09:34.135Z,61.08
2019-05-06T10:10:34.138Z,60.13
2019-05-06T10:11:34.142Z,60.03
2019-05-06T10:12:34.147Z,59.19
2019-05-06T10:13:34.157Z,59.28
2019-05-06T10:14:34.163Z,61.08
2019-05-06T10:15:34.175Z,60.25
2019-05-06T10:16:34.180Z,57.51
2019-05-06T10:17:34.184Z,58.93
2019-05-06T10:18:34.190Z,59.59
2019-05-06T10:19:34.203Z,57.98
2019-05-06T10:20:34.199Z,57.98
2019-05-06T10:21:34.210Z,59.03
2019-05-06T10:22:34.219Z,59.41
2019-05-06T10:23:34.225Z,56.94
2019-05-06T10:24:34.230Z,59.03
2019-05-06T10:25:34.237Z,58.84
2019-05-06T10:26:34.241Z,58.26
2019-05-06T10:27:34.252Z,58.74
2019-05-06T10:28:34.284Z,56.34
2019-05-06T10:29:34.265Z,56.82
2019-05-06T10:30:34.269Z,59.56
2019-05-06T10:31:34.277Z,60.44
2019-05-06T10:32:34.285Z,60.73
2019-05-06T10:33:34.296Z,59.31
2019-05-06T10:34:34.300Z,59.69
2019-05-06T10:35:34.312Z,58.45
2019-05-06T10:36:34.341Z,59.03
2019-05-06T10:37:34.324Z,56.94
2019-05-06T10:38:34.328Z,57.10
2019-05-06T10:39:34.335Z,58.71
2019-05-06T10:40:34.346Z,59.59
2019-05-06T10:41:34.355Z,59.59
2019-05-06T10:42:34.356Z,57.32
2019-05-06T10:43:34.368Z,55.99
2019-05-06T10:44:34.374Z,57.89
2019-05-06T10:45:34.385Z,62.85
2019-05-06T10:46:34.391Z,57.98
2019-05-06T10:47:34.394Z,56.37
2019-05-06T10:48:34.407Z,56.46
2019-05-06T10:49:34.415Z,59.31
2019-05-06T10:50:34.420Z,61.43
2019-05-06T10:51:34.425Z,57.92
2019-05-06T10:52:34.432Z,54.88
2019-05-06T10:53:34.442Z,54.79
2019-05-06T10:54:34.452Z,55.36
2019-05-06T10:55:34.460Z,52.42
2019-05-06T10:56:49.084Z,52.42
2019-05-06T10:57:34.476Z,54.60
2019-05-06T10:58:34.483Z,55.07
2019-05-06T10:59:34.500Z,57.82
2019-05-06T11:00:34.497Z,56.02
2019-05-06T11:01:34.503Z,55.07
2019-05-06T11:02:34.509Z,53.69
2019-05-06T11:03:34.523Z,55.68
2019-05-06T11:04:34.530Z,57.13
2019-05-06T11:05:34.539Z,58.96
2019-05-06T11:06:34.547Z,55.55
2019-05-06T11:07:35.424Z,54.38
2019-05-06T11:08:34.561Z,55.05
2019-05-06T11:09:34.564Z,55.05
2019-05-06T11:10:40.802Z,55.55
2019-05-06T11:11:38.539Z,54.41
2019-05-06T11:12:34.587Z,55.55
2019-05-06T11:13:34.602Z,56.59
2019-05-06T11:14:34.610Z,53.56
2019-05-06T11:15:34.613Z,53.08
2019-05-06T11:16:34.652Z,52.33
2019-05-06T11:17:34.634Z,52.51
2019-05-06T11:18:34.640Z,53.56
2019-05-06T11:19:34.644Z,51.28
2019-05-06T11:20:34.650Z,53.94
2019-05-06T11:21:34.661Z,52.51
2019-05-06T11:22:34.671Z,50.99
2019-05-06T11:23:34.689Z,51.76
2019-05-06T11:24:34.690Z,50.90
2019-05-06T11:25:36.183Z,48.51
2019-05-06T11:26:34.721Z,48.51
2019-05-06T11:27:37.187Z,50.59
2019-05-06T11:28:35.431Z,50.21
2019-05-06T11:29:36.736Z,53.37
2019-05-06T11:30:34.733Z,50.69
2019-05-06T11:31:34.740Z,50.99
2019-05-06T11:32:34.751Z,50.99
2019-05-06T11:33:34.754Z,51.50
2019-05-06T11:34:34.759Z,49.98
2019-05-06T11:35:34.771Z,49.48
2019-05-06T11:36:37.461Z,50.99
2019-05-06T11:37:45.938Z,50.99
2019-05-06T11:38:34.792Z,51.09
2019-05-06T11:39:34.801Z,52.14
2019-05-06T11:40:34.808Z,54.13
2019-05-06T11:41:34.820Z,54.15
2019-05-06T11:42:35.982Z,53.58
2019-05-06T11:43:34.832Z,52.54
2019-05-06T11:44:34.842Z,54.75
2019-05-06T11:45:34.847Z,51.33
2019-05-06T11:46:34.854Z,48.72
2019-05-06T11:47:34.866Z,49.79
2019-05-06T11:48:34.872Z,51.03
2019-05-06T11:49:34.883Z,51.50
2019-05-06T11:50:34.886Z,50.76
2019-05-06T11:51:34.896Z,50.95
2019-05-06T11:52:34.904Z,48.65
2019-05-06T11:53:34.917Z,48.01
2019-05-06T11:54:34.924Z,48.58
2019-05-06T11:55:38.847Z,48.68
2019-05-06T11:56:47.940Z,48.11
2019-05-06T11:57:34.959Z,48.11
2019-05-06T11:58:34.961Z,50.38
2019-05-06T11:59:34.967Z,46.49
2019-05-06T12:00:35.919Z,46.85
2019-05-06T12:01:34.989Z,49.41
2019-05-06T12:02:34.998Z,50.07
2019-05-06T12:03:35.006Z,51.12
2019-05-06T12:04:35.065Z,50.74
2019-05-06T12:05:35.024Z,50.57
2019-05-06T12:06:35.033Z,51.72
2019-05-06T12:07:35.037Z,48.20
2019-05-06T12:08:35.049Z,46.47
2019-05-06T12:09:35.079Z,47.52
2019-05-06T12:10:35.070Z,48.68
2019-05-06T12:11:35.076Z,47.99
2019-05-06T12:12:35.087Z,49.32
2019-05-06T12:13:38.109Z,51.52
2019-05-06T12:14:35.104Z,49.88
2019-05-06T12:15:35.113Z,49.32
2019-05-06T12:16:35.125Z,50.64
2019-05-06T12:17:35.135Z,50.26
2019-05-06T12:18:35.141Z,48.44
2019-05-06T12:19:35.149Z,50.07
2019-05-06T12:20:35.164Z,51.72
2019-05-06T12:21:35.165Z,49.91
2019-05-06T12:22:35.175Z,49.46
2019-05-06T12:23:35.781Z,48.89
2019-05-06T12:24:35.197Z,47.18
2019-05-06T12:25:35.211Z,46.85
2019-05-06T12:26:35.214Z,48.86
2019-05-06T12:27:35.221Z,48.86
2019-05-06T12:28:35.229Z,47.99
2019-05-06T12:29:38.019Z,49.41
2019-05-06T12:30:35.247Z,50.17
2019-05-06T12:31:35.261Z,50.29
2019-05-06T12:32:35.277Z,49.43
2019-05-06T12:33:35.277Z,48.08
2019-05-06T12:34:35.284Z,49.22
2019-05-06T12:35:35.306Z,49.32
2019-05-06T12:36:35.312Z,49.91
2019-05-06T12:37:35.316Z,49.51
2019-05-06T12:38:35.328Z,49.15
2019-05-06T12:39:35.337Z,49.22
2019-05-06T12:40:35.345Z,49.63
2019-05-06T12:41:35.352Z,49.32
2019-05-06T12:42:35.364Z,50.95
2019-05-06T12:43:35.372Z,51.17
2019-05-06T12:44:35.426Z,50.89
2019-05-06T12:45:35.390Z,48.20
2019-05-06T12:46:35.401Z,47.89
2019-05-06T12:47:35.421Z,50.95
2019-05-06T12:48:35.417Z,50.79
2019-05-06T12:49:35.424Z,48.80
2019-05-06T12:50:35.437Z,47.85
2019-05-06T12:51:35.445Z,47.73
2019-05-06T12:52:35.456Z,49.27